sensor_id;sensor_type;location;lat;lon;timestamp;P1;durP1;ratioP1;P2;durP2;ratioP2
20179;SDS011;10249;48.900;9.090;2022-07-09T00:01:08;10.47;;;10.17;;
20179;SDS011;10249;48.900;9.090;2022-07-09T00:03:35;11.20;;;10.80;;
20179;SDS011;10249;48.900;9.090;2022-07-09T00:06:03;10.43;;;10.13;;
20179;SDS011;10249;48.900;9.090;2022-07-09T00:08:30;10.50;;;10.20;;
20179;SDS011;10249;48.900;9.090;2022-07-09T00:10:57;10.30;;;10.00;;
20179;SDS011;10249;48.900;9.090;2022-07-09T00:13:24;10.10;;;9.80;;
20179;SDS011;10249;48.900;9.090;2022-07-09T00:15:51;10.20;;;9.90;;
20179;SDS011;10249;48.900;9.090;2022-07-09T00:18:18;10.30;;;10.00;;
20179;SDS011;10249;48.900;9.090;2022-07-09T00:20:45;9.80;;;9.50;;
20179;SDS011;10249;48.900;9.090;2022-07-09T00:23:14;9.90;;;9.60;;
20179;SDS011;10249;48.900;9.090;2022-07-09T00:25:41;10.00;;;9.70;;
20179;SDS011;10249;48.900;9.090;2022-07-09T00:28:08;9.90;;;9.60;;
20179;SDS011;10249;48.900;9.090;2022-07-09T00:30:35;9.70;;;9.40;;
20179;SDS011;10249;48.900;9.090;2022-07-09T00:33:02;9.70;;;9.40;;
20179;SDS011;10249;48.900;9.090;2022-07-09T00:35:29;9.60;;;9.30;;
20179;SDS011;10249;48.900;9.090;2022-07-09T00:37:56;9.70;;;9.40;;
20179;SDS011;10249;48.900;9.090;2022-07-09T00:40:24;9.67;;;9.37;;
20179;SDS011;10249;48.900;9.090;2022-07-09T00:42:51;9.70;;;9.40;;
20179;SDS011;10249;48.900;9.090;2022-07-09T00:45:19;9.57;;;9.27;;
20179;SDS011;10249;48.900;9.090;2022-07-09T00:47:46;9.50;;;9.20;;
20179;SDS011;10249;48.900;9.090;2022-07-09T00:50:13;9.00;;;8.70;;
20179;SDS011;10249;48.900;9.090;2022-07-09T00:52:40;8.30;;;8.00;;
20179;SDS011;10249;48.900;9.090;2022-07-09T00:55:07;8.90;;;8.50;;
20179;SDS011;10249;48.900;9.090;2022-07-09T00:57:36;7.63;;;7.43;;
20179;SDS011;10249;48.900;9.090;2022-07-09T01:00:04;7.90;;;7.70;;
20179;SDS011;10249;48.900;9.090;2022-07-09T01:02:31;7.70;;;7.50;;
20179;SDS011;10249;48.900;9.090;2022-07-09T01:04:59;7.90;;;7.70;;
20179;SDS011;10249;48.900;9.090;2022-07-09T01:07:26;7.90;;;7.70;;
20179;SDS011;10249;48.900;9.090;2022-07-09T01:09:53;8.00;;;7.80;;
20179;SDS011;10249;48.900;9.090;2022-07-09T01:12:20;8.30;;;8.00;;
20179;SDS011;10249;48.900;9.090;2022-07-09T01:14:48;8.50;;;8.20;;
20179;SDS011;10249;48.900;9.090;2022-07-09T01:17:15;8.10;;;7.90;;
20179;SDS011;10249;48.900;9.090;2022-07-09T01:19:42;8.00;;;7.80;;
20179;SDS011;10249;48.900;9.090;2022-07-09T01:22:11;8.40;;;8.10;;
20179;SDS011;10249;48.900;9.090;2022-07-09T01:24:38;8.10;;;7.90;;
20179;SDS011;10249;48.900;9.090;2022-07-09T01:27:05;8.30;;;8.00;;
20179;SDS011;10249;48.900;9.090;2022-07-09T01:29:33;8.33;;;8.03;;
20179;SDS011;10249;48.900;9.090;2022-07-09T01:32:00;8.33;;;8.03;;
20179;SDS011;10249;48.900;9.090;2022-07-09T01:34:27;8.10;;;7.90;;
20179;SDS011;10249;48.900;9.090;2022-07-09T01:36:54;7.70;;;7.50;;
20179;SDS011;10249;48.900;9.090;2022-07-09T01:39:23;7.83;;;7.63;;
20179;SDS011;10249;48.900;9.090;2022-07-09T01:41:50;7.90;;;7.70;;
20179;SDS011;10249;48.900;9.090;2022-07-09T01:44:17;7.67;;;7.47;;
20179;SDS011;10249;48.900;9.090;2022-07-09T01:46:44;7.70;;;7.50;;
20179;SDS011;10249;48.900;9.090;2022-07-09T01:49:11;7.70;;;7.50;;
20179;SDS011;10249;48.900;9.090;2022-07-09T01:51:38;7.60;;;7.40;;
20179;SDS011;10249;48.900;9.090;2022-07-09T01:54:05;7.67;;;7.47;;
20179;SDS011;10249;48.900;9.090;2022-07-09T01:56:33;7.63;;;7.43;;
20179;SDS011;10249;48.900;9.090;2022-07-09T01:59:00;6.50;;;6.30;;
20179;SDS011;10249;48.900;9.090;2022-07-09T02:01:28;6.60;;;6.40;;
20179;SDS011;10249;48.900;9.090;2022-07-09T02:03:55;6.40;;;6.20;;
20179;SDS011;10249;48.900;9.090;2022-07-09T02:06:22;6.60;;;6.40;;
20179;SDS011;10249;48.900;9.090;2022-07-09T02:08:49;6.80;;;6.60;;
20179;SDS011;10249;48.900;9.090;2022-07-09T02:11:17;6.80;;;6.60;;
20179;SDS011;10249;48.900;9.090;2022-07-09T02:13:45;6.90;;;6.70;;
20179;SDS011;10249;48.900;9.090;2022-07-09T02:16:12;7.00;;;6.80;;
20179;SDS011;10249;48.900;9.090;2022-07-09T02:18:39;7.10;;;6.90;;
20179;SDS011;10249;48.900;9.090;2022-07-09T02:21:06;7.10;;;6.90;;
20179;SDS011;10249;48.900;9.090;2022-07-09T02:23:33;7.13;;;6.93;;
20179;SDS011;10249;48.900;9.090;2022-07-09T02:26:00;7.10;;;6.90;;
20179;SDS011;10249;48.900;9.090;2022-07-09T02:28:28;7.20;;;7.00;;
20179;SDS011;10249;48.900;9.090;2022-07-09T02:30:56;7.50;;;7.30;;
20179;SDS011;10249;48.900;9.090;2022-07-09T02:33:23;7.60;;;7.40;;
20179;SDS011;10249;48.900;9.090;2022-07-09T02:35:50;8.87;;;8.57;;
20179;SDS011;10249;48.900;9.090;2022-07-09T02:38:17;8.47;;;8.17;;
20179;SDS011;10249;48.900;9.090;2022-07-09T02:40:46;7.80;;;7.60;;
20179;SDS011;10249;48.900;9.090;2022-07-09T02:43:13;8.30;;;8.00;;
20179;SDS011;10249;48.900;9.090;2022-07-09T02:45:40;7.87;;;7.67;;
20179;SDS011;10249;48.900;9.090;2022-07-09T02:48:08;7.73;;;7.53;;
20179;SDS011;10249;48.900;9.090;2022-07-09T02:50:36;7.90;;;7.70;;
20179;SDS011;10249;48.900;9.090;2022-07-09T02:53:03;7.63;;;7.43;;
20179;SDS011;10249;48.900;9.090;2022-07-09T02:55:30;8.00;;;7.80;;
20179;SDS011;10249;48.900;9.090;2022-07-09T02:57:57;7.90;;;7.70;;
20179;SDS011;10249;48.900;9.090;2022-07-09T03:00:24;7.60;;;7.40;;
20179;SDS011;10249;48.900;9.090;2022-07-09T03:02:51;7.90;;;7.70;;
20179;SDS011;10249;48.900;9.090;2022-07-09T03:05:19;7.80;;;7.60;;
20179;SDS011;10249;48.900;9.090;2022-07-09T03:07:46;8.00;;;7.80;;
20179;SDS011;10249;48.900;9.090;2022-07-09T03:10:14;7.77;;;7.57;;
20179;SDS011;10249;48.900;9.090;2022-07-09T03:12:41;7.40;;;7.20;;
20179;SDS011;10249;48.900;9.090;2022-07-09T03:15:08;6.87;;;6.67;;
20179;SDS011;10249;48.900;9.090;2022-07-09T03:17:38;6.60;;;6.40;;
20179;SDS011;10249;48.900;9.090;2022-07-09T03:20:05;6.50;;;6.30;;
20179;SDS011;10249;48.900;9.090;2022-07-09T03:22:34;6.67;;;6.47;;
20179;SDS011;10249;48.900;9.090;2022-07-09T03:25:01;6.60;;;6.40;;
20179;SDS011;10249;48.900;9.090;2022-07-09T03:27:28;6.83;;;6.63;;
20179;SDS011;10249;48.900;9.090;2022-07-09T03:29:55;7.13;;;6.93;;
20179;SDS011;10249;48.900;9.090;2022-07-09T03:32:22;7.30;;;7.10;;
20179;SDS011;10249;48.900;9.090;2022-07-09T03:34:49;7.30;;;7.10;;
20179;SDS011;10249;48.900;9.090;2022-07-09T03:37:17;7.70;;;7.50;;
20179;SDS011;10249;48.900;9.090;2022-07-09T03:39:45;11.00;;;10.60;;
20179;SDS011;10249;48.900;9.090;2022-07-09T03:42:12;7.50;;;7.30;;
20179;SDS011;10249;48.900;9.090;2022-07-09T03:44:40;7.80;;;7.60;;
20179;SDS011;10249;48.900;9.090;2022-07-09T03:47:07;7.50;;;7.30;;
20179;SDS011;10249;48.900;9.090;2022-07-09T03:49:34;7.40;;;7.20;;
20179;SDS011;10249;48.900;9.090;2022-07-09T03:52:01;7.10;;;6.90;;
20179;SDS011;10249;48.900;9.090;2022-07-09T03:54:28;6.77;;;6.57;;
20179;SDS011;10249;48.900;9.090;2022-07-09T03:56:57;6.60;;;6.40;;
20179;SDS011;10249;48.900;9.090;2022-07-09T03:59:24;6.60;;;6.40;;
20179;SDS011;10249;48.900;9.090;2022-07-09T04:01:51;7.00;;;6.80;;
20179;SDS011;10249;48.900;9.090;2022-07-09T04:04:18;7.20;;;7.00;;
20179;SDS011;10249;48.900;9.090;2022-07-09T04:06:45;7.30;;;7.10;;
20179;SDS011;10249;48.900;9.090;2022-07-09T04:09:12;7.30;;;7.10;;
20179;SDS011;10249;48.900;9.090;2022-07-09T04:11:39;7.00;;;6.80;;
20179;SDS011;10249;48.900;9.090;2022-07-09T04:14:08;7.00;;;6.80;;
20179;SDS011;10249;48.900;9.090;2022-07-09T04:16:35;7.27;;;7.07;;
20179;SDS011;10249;48.900;9.090;2022-07-09T04:19:02;7.77;;;7.57;;
20179;SDS011;10249;48.900;9.090;2022-07-09T04:21:29;8.00;;;7.80;;
20179;SDS011;10249;48.900;9.090;2022-07-09T04:23:56;8.00;;;7.80;;
20179;SDS011;10249;48.900;9.090;2022-07-09T04:26:23;8.00;;;7.80;;
20179;SDS011;10249;48.900;9.090;2022-07-09T04:28:50;7.80;;;7.60;;
20179;SDS011;10249;48.900;9.090;2022-07-09T04:31:19;7.90;;;7.70;;
20179;SDS011;10249;48.900;9.090;2022-07-09T04:33:46;7.70;;;7.50;;
20179;SDS011;10249;48.900;9.090;2022-07-09T04:36:13;7.77;;;7.57;;
20179;SDS011;10249;48.900;9.090;2022-07-09T04:38:40;7.70;;;7.50;;
20179;SDS011;10249;48.900;9.090;2022-07-09T04:41:07;7.70;;;7.50;;
20179;SDS011;10249;48.900;9.090;2022-07-09T04:43:35;8.30;;;8.00;;
20179;SDS011;10249;48.900;9.090;2022-07-09T04:46:02;8.00;;;7.80;;
20179;SDS011;10249;48.900;9.090;2022-07-09T04:48:30;8.50;;;8.20;;
20179;SDS011;10249;48.900;9.090;2022-07-09T04:50:57;7.40;;;7.20;;
20179;SDS011;10249;48.900;9.090;2022-07-09T04:53:24;7.20;;;7.00;;
20179;SDS011;10249;48.900;9.090;2022-07-09T04:55:51;7.20;;;7.00;;
20179;SDS011;10249;48.900;9.090;2022-07-09T04:58:18;7.20;;;7.00;;
20179;SDS011;10249;48.900;9.090;2022-07-09T05:00:45;7.53;;;7.33;;
20179;SDS011;10249;48.900;9.090;2022-07-09T05:03:12;7.53;;;7.33;;
20179;SDS011;10249;48.900;9.090;2022-07-09T05:05:41;7.73;;;7.53;;
20179;SDS011;10249;48.900;9.090;2022-07-09T05:08:08;8.40;;;8.10;;
20179;SDS011;10249;48.900;9.090;2022-07-09T05:10:35;8.30;;;8.00;;
20179;SDS011;10249;48.900;9.090;2022-07-09T05:13:02;7.90;;;7.70;;
20179;SDS011;10249;48.900;9.090;2022-07-09T05:15:29;8.03;;;7.83;;
20179;SDS011;10249;48.900;9.090;2022-07-09T05:17:57;8.20;;;7.90;;
20179;SDS011;10249;48.900;9.090;2022-07-09T05:20:24;8.37;;;8.07;;
20179;SDS011;10249;48.900;9.090;2022-07-09T05:22:53;8.80;;;8.50;;
20179;SDS011;10249;48.900;9.090;2022-07-09T05:25:20;8.60;;;8.30;;
20179;SDS011;10249;48.900;9.090;2022-07-09T05:27:47;8.77;;;8.47;;
20179;SDS011;10249;48.900;9.090;2022-07-09T05:30:14;8.90;;;8.60;;
20179;SDS011;10249;48.900;9.090;2022-07-09T05:32:42;9.20;;;8.90;;
20179;SDS011;10249;48.900;9.090;2022-07-09T05:35:09;9.30;;;9.00;;
20179;SDS011;10249;48.900;9.090;2022-07-09T05:37:40;9.50;;;9.20;;
20179;SDS011;10249;48.900;9.090;2022-07-09T05:40:09;9.13;;;8.83;;
20179;SDS011;10249;48.900;9.090;2022-07-09T05:42:36;9.60;;;9.30;;
20179;SDS011;10249;48.900;9.090;2022-07-09T05:45:04;9.80;;;9.50;;
20179;SDS011;10249;48.900;9.090;2022-07-09T05:47:31;10.23;;;9.93;;
20179;SDS011;10249;48.900;9.090;2022-07-09T05:49:58;10.33;;;10.03;;
20179;SDS011;10249;48.900;9.090;2022-07-09T05:52:25;10.30;;;10.00;;
20179;SDS011;10249;48.900;9.090;2022-07-09T05:54:52;10.40;;;10.10;;
20179;SDS011;10249;48.900;9.090;2022-07-09T05:57:21;10.60;;;10.20;;
20179;SDS011;10249;48.900;9.090;2022-07-09T05:59:48;10.77;;;10.37;;
20179;SDS011;10249;48.900;9.090;2022-07-09T06:02:15;10.90;;;10.50;;
20179;SDS011;10249;48.900;9.090;2022-07-09T06:04:42;10.63;;;10.23;;
20179;SDS011;10249;48.900;9.090;2022-07-09T06:07:09;10.67;;;10.27;;
20179;SDS011;10249;48.900;9.090;2022-07-09T06:09:36;11.10;;;10.70;;
20179;SDS011;10249;48.900;9.090;2022-07-09T06:12:03;11.10;;;10.70;;
20179;SDS011;10249;48.900;9.090;2022-07-09T06:14:32;11.40;;;11.00;;
20179;SDS011;10249;48.900;9.090;2022-07-09T06:16:59;11.43;;;11.03;;
20179;SDS011;10249;48.900;9.090;2022-07-09T06:19:30;11.33;;;10.93;;
20179;SDS011;10249;48.900;9.090;2022-07-09T06:21:57;12.97;;;12.47;;
20179;SDS011;10249;48.900;9.090;2022-07-09T06:24:25;11.50;;;11.10;;
20179;SDS011;10249;48.900;9.090;2022-07-09T06:26:52;11.80;;;11.40;;
20179;SDS011;10249;48.900;9.090;2022-07-09T06:29:19;11.40;;;11.00;;
20179;SDS011;10249;48.900;9.090;2022-07-09T06:31:47;11.60;;;11.20;;
20179;SDS011;10249;48.900;9.090;2022-07-09T06:34:14;11.53;;;11.13;;
20179;SDS011;10249;48.900;9.090;2022-07-09T06:36:41;11.73;;;11.33;;
20179;SDS011;10249;48.900;9.090;2022-07-09T06:39:09;11.50;;;11.10;;
20179;SDS011;10249;48.900;9.090;2022-07-09T06:41:54;11.80;;;11.40;;
20179;SDS011;10249;48.900;9.090;2022-07-09T06:44:21;12.40;;;12.00;;
20179;SDS011;10249;48.900;9.090;2022-07-09T06:46:49;12.07;;;11.67;;
20179;SDS011;10249;48.900;9.090;2022-07-09T06:49:16;13.20;;;12.60;;
20179;SDS011;10249;48.900;9.090;2022-07-09T06:51:43;12.20;;;11.80;;
20179;SDS011;10249;48.900;9.090;2022-07-09T06:54:10;12.73;;;12.23;;
20179;SDS011;10249;48.900;9.090;2022-07-09T06:56:37;12.70;;;12.20;;
20179;SDS011;10249;48.900;9.090;2022-07-09T06:59:04;12.37;;;11.97;;
20179;SDS011;10249;48.900;9.090;2022-07-09T07:01:31;12.77;;;12.27;;
20179;SDS011;10249;48.900;9.090;2022-07-09T07:04:00;12.43;;;12.03;;
20179;SDS011;10249;48.900;9.090;2022-07-09T07:06:27;12.50;;;12.00;;
20179;SDS011;10249;48.900;9.090;2022-07-09T07:08:54;12.30;;;11.90;;
20179;SDS011;10249;48.900;9.090;2022-07-09T07:11:21;12.70;;;12.20;;
20179;SDS011;10249;48.900;9.090;2022-07-09T07:13:48;14.60;;;13.67;;
20179;SDS011;10249;48.900;9.090;2022-07-09T07:16:15;12.73;;;12.23;;
20179;SDS011;10249;48.900;9.090;2022-07-09T07:18:42;13.00;;;12.50;;
20179;SDS011;10249;48.900;9.090;2022-07-09T07:21:11;13.50;;;13.00;;
20179;SDS011;10249;48.900;9.090;2022-07-09T07:23:38;13.20;;;12.70;;
20179;SDS011;10249;48.900;9.090;2022-07-09T07:26:05;13.10;;;12.60;;
20179;SDS011;10249;48.900;9.090;2022-07-09T07:28:32;13.63;;;13.13;;
20179;SDS011;10249;48.900;9.090;2022-07-09T07:31:00;13.10;;;12.60;;
20179;SDS011;10249;48.900;9.090;2022-07-09T07:33:27;13.50;;;13.00;;
20179;SDS011;10249;48.900;9.090;2022-07-09T07:35:54;13.10;;;12.60;;
20179;SDS011;10249;48.900;9.090;2022-07-09T07:38:22;13.20;;;12.70;;
20179;SDS011;10249;48.900;9.090;2022-07-09T07:40:52;13.47;;;12.97;;
20179;SDS011;10249;48.900;9.090;2022-07-09T07:43:19;13.30;;;12.80;;
20179;SDS011;10249;48.900;9.090;2022-07-09T07:45:46;14.77;;;14.00;;
20179;SDS011;10249;48.900;9.090;2022-07-09T07:48:13;13.43;;;12.93;;
20179;SDS011;10249;48.900;9.090;2022-07-09T07:50:40;15.03;;;13.60;;
20179;SDS011;10249;48.900;9.090;2022-07-09T07:53:07;13.50;;;13.00;;
20179;SDS011;10249;48.900;9.090;2022-07-09T07:55:35;13.40;;;12.90;;
20179;SDS011;10249;48.900;9.090;2022-07-09T07:58:03;13.50;;;13.00;;
20179;SDS011;10249;48.900;9.090;2022-07-09T08:00:30;14.40;;;13.77;;
20179;SDS011;10249;48.900;9.090;2022-07-09T08:02:57;13.70;;;13.20;;
20179;SDS011;10249;48.900;9.090;2022-07-09T08:05:24;14.00;;;13.30;;
20179;SDS011;10249;48.900;9.090;2022-07-09T08:07:51;14.10;;;13.50;;
20179;SDS011;10249;48.900;9.090;2022-07-09T08:10:18;13.57;;;13.07;;
20179;SDS011;10249;48.900;9.090;2022-07-09T08:12:47;14.10;;;13.50;;
20179;SDS011;10249;48.900;9.090;2022-07-09T08:15:14;14.30;;;13.70;;
20179;SDS011;10249;48.900;9.090;2022-07-09T08:17:41;13.90;;;13.40;;
20179;SDS011;10249;48.900;9.090;2022-07-09T08:20:09;14.67;;;14.07;;
20179;SDS011;10249;48.900;9.090;2022-07-09T08:22:37;14.23;;;13.63;;
20179;SDS011;10249;48.900;9.090;2022-07-09T08:25:04;14.50;;;13.90;;
20179;SDS011;10249;48.900;9.090;2022-07-09T08:27:31;13.93;;;13.43;;
20179;SDS011;10249;48.900;9.090;2022-07-09T08:30:00;14.00;;;13.50;;
20179;SDS011;10249;48.900;9.090;2022-07-09T08:32:27;14.27;;;13.67;;
20179;SDS011;10249;48.900;9.090;2022-07-09T08:34:54;15.70;;;15.00;;
20179;SDS011;10249;48.900;9.090;2022-07-09T08:37:21;15.63;;;14.93;;
20179;SDS011;10249;48.900;9.090;2022-07-09T08:39:48;14.60;;;14.00;;
20179;SDS011;10249;48.900;9.090;2022-07-09T08:42:15;14.50;;;13.90;;
20179;SDS011;10249;48.900;9.090;2022-07-09T08:44:43;14.57;;;13.97;;
20179;SDS011;10249;48.900;9.090;2022-07-09T08:47:14;14.70;;;14.10;;
20179;SDS011;10249;48.900;9.090;2022-07-09T08:49:41;14.20;;;13.60;;
20179;SDS011;10249;48.900;9.090;2022-07-09T08:52:08;14.30;;;13.70;;
20179;SDS011;10249;48.900;9.090;2022-07-09T08:54:37;15.70;;;14.70;;
20179;SDS011;10249;48.900;9.090;2022-07-09T08:57:04;14.80;;;14.20;;
20179;SDS011;10249;48.900;9.090;2022-07-09T08:59:32;15.63;;;14.77;;
20179;SDS011;10249;48.900;9.090;2022-07-09T09:02:03;14.50;;;13.90;;
20179;SDS011;10249;48.900;9.090;2022-07-09T09:04:31;15.00;;;14.30;;
20179;SDS011;10249;48.900;9.090;2022-07-09T09:06:59;15.07;;;14.43;;
20179;SDS011;10249;48.900;9.090;2022-07-09T09:09:26;15.30;;;14.60;;
20179;SDS011;10249;48.900;9.090;2022-07-09T09:11:55;14.60;;;13.90;;
20179;SDS011;10249;48.900;9.090;2022-07-09T09:14:23;14.20;;;13.60;;
20179;SDS011;10249;48.900;9.090;2022-07-09T09:16:50;15.50;;;14.70;;
20179;SDS011;10249;48.900;9.090;2022-07-09T09:19:17;14.20;;;13.60;;
20179;SDS011;10249;48.900;9.090;2022-07-09T09:21:49;14.47;;;13.87;;
20179;SDS011;10249;48.900;9.090;2022-07-09T09:24:21;14.67;;;14.07;;
20179;SDS011;10249;48.900;9.090;2022-07-09T09:26:49;14.27;;;13.67;;
20179;SDS011;10249;48.900;9.090;2022-07-09T09:29:16;14.27;;;13.67;;
20179;SDS011;10249;48.900;9.090;2022-07-09T09:31:44;14.60;;;14.00;;
20179;SDS011;10249;48.900;9.090;2022-07-09T09:34:12;14.00;;;13.40;;
20179;SDS011;10249;48.900;9.090;2022-07-09T09:36:40;13.90;;;13.40;;
20179;SDS011;10249;48.900;9.090;2022-07-09T09:39:10;15.27;;;14.57;;
20179;SDS011;10249;48.900;9.090;2022-07-09T09:41:37;14.40;;;13.80;;
20179;SDS011;10249;48.900;9.090;2022-07-09T09:44:06;14.47;;;13.87;;
20179;SDS011;10249;48.900;9.090;2022-07-09T09:46:35;15.77;;;14.20;;
20179;SDS011;10249;48.900;9.090;2022-07-09T09:49:02;14.57;;;13.97;;
20179;SDS011;10249;48.900;9.090;2022-07-09T09:51:33;14.70;;;14.10;;
20179;SDS011;10249;48.900;9.090;2022-07-09T09:54:01;15.50;;;14.70;;
20179;SDS011;10249;48.900;9.090;2022-07-09T09:56:29;14.40;;;13.80;;
20179;SDS011;10249;48.900;9.090;2022-07-09T09:58:58;15.23;;;14.50;;
20179;SDS011;10249;48.900;9.090;2022-07-09T10:01:25;14.67;;;14.07;;
20179;SDS011;10249;48.900;9.090;2022-07-09T10:03:52;14.47;;;13.87;;
20179;SDS011;10249;48.900;9.090;2022-07-09T10:06:20;15.33;;;14.63;;
20179;SDS011;10249;48.900;9.090;2022-07-09T10:08:47;15.37;;;14.57;;
20179;SDS011;10249;48.900;9.090;2022-07-09T10:11:14;14.80;;;14.20;;
20179;SDS011;10249;48.900;9.090;2022-07-09T10:13:50;14.80;;;14.20;;
20179;SDS011;10249;48.900;9.090;2022-07-09T10:16:17;14.70;;;14.10;;
20179;SDS011;10249;48.900;9.090;2022-07-09T10:18:50;15.27;;;14.57;;
20179;SDS011;10249;48.900;9.090;2022-07-09T10:21:17;15.30;;;14.50;;
20179;SDS011;10249;48.900;9.090;2022-07-09T10:23:50;14.90;;;14.30;;
20179;SDS011;10249;48.900;9.090;2022-07-09T10:26:17;14.90;;;14.30;;
20179;SDS011;10249;48.900;9.090;2022-07-09T10:28:44;14.73;;;13.93;;
20179;SDS011;10249;48.900;9.090;2022-07-09T10:31:13;15.40;;;14.70;;
20179;SDS011;10249;48.900;9.090;2022-07-09T10:33:48;14.70;;;14.10;;
20179;SDS011;10249;48.900;9.090;2022-07-09T10:36:16;14.40;;;13.80;;
20179;SDS011;10249;48.900;9.090;2022-07-09T10:38:51;14.40;;;13.80;;
20179;SDS011;10249;48.900;9.090;2022-07-09T10:41:20;14.60;;;14.00;;
20179;SDS011;10249;48.900;9.090;2022-07-09T10:43:49;15.00;;;14.30;;
20179;SDS011;10249;48.900;9.090;2022-07-09T10:46:18;14.80;;;14.20;;
20179;SDS011;10249;48.900;9.090;2022-07-09T10:48:45;14.53;;;13.93;;
20179;SDS011;10249;48.900;9.090;2022-07-09T10:51:16;14.97;;;14.37;;
20179;SDS011;10249;48.900;9.090;2022-07-09T10:53:44;15.30;;;14.40;;
20179;SDS011;10249;48.900;9.090;2022-07-09T10:56:11;14.33;;;13.73;;
20179;SDS011;10249;48.900;9.090;2022-07-09T10:58:38;14.50;;;13.90;;
20179;SDS011;10249;48.900;9.090;2022-07-09T11:01:11;15.63;;;14.83;;
20179;SDS011;10249;48.900;9.090;2022-07-09T11:03:46;14.90;;;14.20;;
20179;SDS011;10249;48.900;9.090;2022-07-09T11:06:15;15.23;;;14.53;;
20179;SDS011;10249;48.900;9.090;2022-07-09T11:08:42;14.40;;;13.80;;
20179;SDS011;10249;48.900;9.090;2022-07-09T11:11:09;14.13;;;13.53;;
20179;SDS011;10249;48.900;9.090;2022-07-09T11:13:36;14.80;;;14.10;;
20179;SDS011;10249;48.900;9.090;2022-07-09T11:16:03;14.17;;;13.57;;
20179;SDS011;10249;48.900;9.090;2022-07-09T11:18:31;13.97;;;13.37;;
20179;SDS011;10249;48.900;9.090;2022-07-09T11:20:59;14.17;;;13.57;;
20179;SDS011;10249;48.900;9.090;2022-07-09T11:23:26;14.23;;;13.63;;
20179;SDS011;10249;48.900;9.090;2022-07-09T11:25:53;14.30;;;13.70;;
20179;SDS011;10249;48.900;9.090;2022-07-09T11:28:21;14.45;;;13.85;;
20179;SDS011;10249;48.900;9.090;2022-07-09T11:30:57;14.70;;;14.10;;
20179;SDS011;10249;48.900;9.090;2022-07-09T11:33:24;15.13;;;14.43;;
20179;SDS011;10249;48.900;9.090;2022-07-09T11:35:51;14.70;;;14.00;;
20179;SDS011;10249;48.900;9.090;2022-07-09T11:38:19;15.68;;;14.80;;
20179;SDS011;10249;48.900;9.090;2022-07-09T11:40:46;15.37;;;14.67;;
20179;SDS011;10249;48.900;9.090;2022-07-09T11:43:13;14.90;;;14.10;;
20179;SDS011;10249;48.900;9.090;2022-07-09T11:45:50;14.60;;;14.00;;
20179;SDS011;10249;48.900;9.090;2022-07-09T11:48:17;15.10;;;14.50;;
20179;SDS011;10249;48.900;9.090;2022-07-09T11:50:45;15.27;;;14.50;;
20179;SDS011;10249;48.900;9.090;2022-07-09T11:53:20;15.63;;;14.88;;
20179;SDS011;10249;48.900;9.090;2022-07-09T11:55:56;15.50;;;14.82;;
20179;SDS011;10249;48.900;9.090;2022-07-09T11:58:24;15.00;;;14.40;;
20179;SDS011;10249;48.900;9.090;2022-07-09T12:00:51;15.45;;;14.65;;
20179;SDS011;10249;48.900;9.090;2022-07-09T12:03:23;14.43;;;13.82;;
20179;SDS011;10249;48.900;9.090;2022-07-09T12:05:50;14.52;;;13.93;;
20179;SDS011;10249;48.900;9.090;2022-07-09T12:08:27;15.35;;;14.65;;
20179;SDS011;10249;48.900;9.090;2022-07-09T12:10:55;14.98;;;14.38;;
20179;SDS011;10249;48.900;9.090;2022-07-09T12:13:22;15.52;;;14.82;;
20179;SDS011;10249;48.900;9.090;2022-07-09T12:15:49;15.15;;;14.45;;
20179;SDS011;10249;48.900;9.090;2022-07-09T12:18:16;15.50;;;14.70;;
20179;SDS011;10249;48.900;9.090;2022-07-09T12:20:43;14.95;;;14.35;;
20179;SDS011;10249;48.900;9.090;2022-07-09T12:23:10;15.63;;;14.93;;
20179;SDS011;10249;48.900;9.090;2022-07-09T12:25:39;15.70;;;14.90;;
20179;SDS011;10249;48.900;9.090;2022-07-09T12:28:06;16.00;;;15.10;;
20179;SDS011;10249;48.900;9.090;2022-07-09T12:30:33;15.93;;;15.02;;
20179;SDS011;10249;48.900;9.090;2022-07-09T12:33:00;14.65;;;14.05;;
20179;SDS011;10249;48.900;9.090;2022-07-09T12:35:27;14.85;;;14.25;;
20179;SDS011;10249;48.900;9.090;2022-07-09T12:37:54;15.27;;;14.57;;
20179;SDS011;10249;48.900;9.090;2022-07-09T12:40:22;15.73;;;15.02;;
20179;SDS011;10249;48.900;9.090;2022-07-09T12:42:50;15.50;;;14.80;;
20179;SDS011;10249;48.900;9.090;2022-07-09T12:45:17;15.50;;;14.80;;
20179;SDS011;10249;48.900;9.090;2022-07-09T12:47:44;15.63;;;14.93;;
20179;SDS011;10249;48.900;9.090;2022-07-09T12:50:12;15.10;;;14.40;;
20179;SDS011;10249;48.900;9.090;2022-07-09T12:52:39;15.88;;;15.15;;
20179;SDS011;10249;48.900;9.090;2022-07-09T12:55:06;15.40;;;14.73;;
20179;SDS011;10249;48.900;9.090;2022-07-09T12:57:34;14.75;;;14.15;;
20179;SDS011;10249;48.900;9.090;2022-07-09T13:00:04;15.77;;;14.93;;
20179;SDS011;10249;48.900;9.090;2022-07-09T13:02:31;14.60;;;14.00;;
20179;SDS011;10249;48.900;9.090;2022-07-09T13:04:58;15.38;;;14.70;;
20179;SDS011;10249;48.900;9.090;2022-07-09T13:07:25;15.13;;;14.43;;
20179;SDS011;10249;48.900;9.090;2022-07-09T13:09:52;15.45;;;14.70;;
20179;SDS011;10249;48.900;9.090;2022-07-09T13:12:19;15.43;;;14.65;;
20179;SDS011;10249;48.900;9.090;2022-07-09T13:14:46;15.10;;;14.50;;
20179;SDS011;10249;48.900;9.090;2022-07-09T13:17:15;15.20;;;14.50;;
20179;SDS011;10249;48.900;9.090;2022-07-09T13:19:42;15.90;;;15.10;;
20179;SDS011;10249;48.900;9.090;2022-07-09T13:22:09;15.52;;;14.80;;
20179;SDS011;10249;48.900;9.090;2022-07-09T13:24:36;14.82;;;14.23;;
20179;SDS011;10249;48.900;9.090;2022-07-09T13:27:03;15.05;;;14.38;;
20179;SDS011;10249;48.900;9.090;2022-07-09T13:29:33;15.30;;;14.60;;
20179;SDS011;10249;48.900;9.090;2022-07-09T13:32:00;14.75;;;14.15;;
20179;SDS011;10249;48.900;9.090;2022-07-09T13:34:29;15.15;;;14.40;;
20179;SDS011;10249;48.900;9.090;2022-07-09T13:36:56;14.98;;;14.30;;
20179;SDS011;10249;48.900;9.090;2022-07-09T13:39:23;15.13;;;14.43;;
20179;SDS011;10249;48.900;9.090;2022-07-09T13:41:50;15.55;;;14.82;;
20179;SDS011;10249;48.900;9.090;2022-07-09T13:44:17;15.25;;;14.55;;
20179;SDS011;10249;48.900;9.090;2022-07-09T13:46:44;14.73;;;14.13;;
20179;SDS011;10249;48.900;9.090;2022-07-09T13:49:11;15.48;;;14.73;;
20179;SDS011;10249;48.900;9.090;2022-07-09T13:51:40;15.70;;;14.80;;
20179;SDS011;10249;48.900;9.090;2022-07-09T13:54:07;15.32;;;14.73;;
20179;SDS011;10249;48.900;9.090;2022-07-09T13:56:34;15.73;;;15.02;;
20179;SDS011;10249;48.900;9.090;2022-07-09T13:59:01;14.98;;;14.38;;
20179;SDS011;10249;48.900;9.090;2022-07-09T14:01:28;15.27;;;14.40;;
20179;SDS011;10249;48.900;9.090;2022-07-09T14:03:56;15.15;;;14.45;;
20179;SDS011;10249;48.900;9.090;2022-07-09T14:06:23;14.75;;;14.15;;
20179;SDS011;10249;48.900;9.090;2022-07-09T14:08:52;14.27;;;13.68;;
20179;SDS011;10249;48.900;9.090;2022-07-09T14:11:19;14.60;;;14.00;;
20179;SDS011;10249;48.900;9.090;2022-07-09T14:13:46;15.40;;;14.50;;
20179;SDS011;10249;48.900;9.090;2022-07-09T14:16:14;15.45;;;14.75;;
20179;SDS011;10249;48.900;9.090;2022-07-09T14:18:41;14.95;;;14.25;;
20179;SDS011;10249;48.900;9.090;2022-07-09T14:21:08;15.23;;;14.63;;
20179;SDS011;10249;48.900;9.090;2022-07-09T14:23:35;15.10;;;14.40;;
20179;SDS011;10249;48.900;9.090;2022-07-09T14:26:04;15.65;;;14.95;;
20179;SDS011;10249;48.900;9.090;2022-07-09T14:28:31;14.93;;;14.23;;
20179;SDS011;10249;48.900;9.090;2022-07-09T14:30:58;15.00;;;14.30;;
20179;SDS011;10249;48.900;9.090;2022-07-09T14:33:25;15.25;;;14.55;;